Time;durP1;ratioP1;P1;durP2;ratioP2;P2;SDS_P1;SDS_P2;PMS_P1;PMS_P2;Temp;Humidity;BMP_temperature;BMP_pressure;BME280_temperature;BME280_humidity;BME280_pressure;Samples;Min_cycle;Max_cycle;Signal;HPM_P1;HPM_P2
2023/12/13 00:01:30;;;;;;;35.80;18.60;;;3.60;99.90;;;;;;5229659;28;20288;-48
2023/12/13 00:04:00;;;;;;;34.33;19.60;;;3.60;99.90;;;;;;5230259;28;20441;-48
2023/12/13 00:06:31;;;;;;;40.73;20.47;;;3.60;99.90;;;;;;5225368;28;20221;-47
2023/12/13 00:09:02;;;;;;;44.70;22.20;;;3.60;99.90;;;;;;5211990;28;20193;-47
2023/12/13 00:11:33;;;;;;;42.70;20.37;;;3.60;99.90;;;;;;5227306;28;20298;-48
2023/12/13 00:14:03;;;;;;;53.47;22.87;;;3.60;99.90;;;;;;5229247;28;20525;-47
2023/12/13 00:16:38;;;;;;;52.40;22.50;;;3.60;99.90;;;;;;5227282;28;20664;-47
2023/12/13 00:19:09;;;;;;;55.03;23.60;;;3.50;99.90;;;;;;5226899;28;20212;-48
2023/12/13 00:21:39;;;;;;;51.07;22.53;;;3.50;99.90;;;;;;5229687;28;20472;-48
2023/12/13 00:24:12;;;;;;;55.60;23.00;;;3.50;99.90;;;;;;5226817;28;20670;-48
2023/12/13 00:26:43;;;;;;;53.50;22.67;;;3.50;99.90;;;;;;5223346;28;20175;-47
2023/12/13 00:29:13;;;;;;;52.80;23.70;;;3.60;99.90;;;;;;5228310;28;20460;-47
2023/12/13 00:31:44;;;;;;;52.57;24.57;;;3.60;99.90;;;;;;5227276;28;20272;-47
2023/12/13 00:34:15;;;;;;;52.87;24.93;;;3.60;99.90;;;;;;5227449;28;20236;-48
2023/12/13 00:36:45;;;;;;;64.80;24.73;;;3.60;99.90;;;;;;5226780;28;20171;-48
2023/12/13 00:39:16;;;;;;;60.20;24.40;;;3.60;99.90;;;;;;5225339;28;20609;-47
2023/12/13 00:41:46;;;;;;;63.43;26.90;;;3.60;99.90;;;;;;5226341;28;20191;-48
2023/12/13 00:44:17;;;;;;;63.93;24.23;;;3.60;99.90;;;;;;5226336;28;20201;-48
2023/12/13 00:46:48;;;;;;;62.67;25.30;;;3.60;99.90;;;;;;5225207;28;20186;-48
2023/12/13 00:49:20;;;;;;;61.63;25.53;;;3.60;99.90;;;;;;5225735;28;20186;-47
2023/12/13 00:51:50;;;;;;;68.20;25.50;;;3.60;99.90;;;;;;5222477;28;20826;-49
2023/12/13 00:54:21;;;;;;;81.60;27.27;;;3.60;99.90;;;;;;5224068;28;20426;-48
2023/12/13 00:56:52;;;;;;;53.63;25.80;;;3.60;99.90;;;;;;5228287;28;20615;-50
2023/12/13 00:59:22;;;;;;;64.27;25.10;;;3.60;99.90;;;;;;5225855;28;20205;-49
2023/12/13 01:01:53;;;;;;;58.17;25.73;;;3.60;99.90;;;;;;5221163;28;20240;-47
2023/12/13 01:04:23;;;;;;;61.70;24.87;;;3.60;99.90;;;;;;5222008;28;20206;-48
2023/12/13 01:06:54;;;;;;;60.83;25.77;;;3.60;99.90;;;;;;5226315;28;20600;-48
2023/12/13 01:09:24;;;;;;;62.73;26.37;;;3.60;99.90;;;;;;5225132;28;20182;-47
2023/12/13 01:11:55;;;;;;;70.07;25.10;;;3.60;99.90;;;;;;5223456;28;20290;-47
2023/12/13 01:14:26;;;;;;;54.80;25.17;;;3.60;99.90;;;;;;5223358;28;20635;-48
2023/12/13 01:16:56;;;;;;;65.67;26.63;;;3.60;99.90;;;;;;5225327;28;20232;-48
2023/12/13 01:19:27;;;;;;;58.27;26.07;;;3.70;99.90;;;;;;5226078;28;20187;-47
2023/12/13 01:21:58;;;;;;;50.30;24.40;;;3.70;99.90;;;;;;5219167;28;20207;-49
2023/12/13 01:24:28;;;;;;;57.93;25.83;;;3.70;99.90;;;;;;5224686;28;20457;-47
2023/12/13 01:26:59;;;;;;;48.43;23.67;;;3.70;99.90;;;;;;5212439;28;20188;-47
2023/12/13 01:29:30;;;;;;;40.30;21.93;;;3.80;99.90;;;;;;5218617;28;20546;-48
2023/12/13 01:32:01;;;;;;;49.50;23.40;;;3.80;99.90;;;;;;5223977;28;20237;-47
2023/12/13 01:34:32;;;;;;;44.33;23.47;;;3.80;99.90;;;;;;5209263;28;20481;-47
2023/12/13 01:37:03;;;;;;;39.63;21.33;;;3.80;99.90;;;;;;5223975;28;20464;-48
2023/12/13 01:39:33;;;;;;;41.00;21.77;;;3.80;99.90;;;;;;5224049;28;20237;-55
2023/12/13 01:42:05;;;;;;;43.77;22.00;;;3.80;99.90;;;;;;5223684;28;20207;-48
2023/12/13 01:44:35;;;;;;;48.97;23.50;;;3.90;99.90;;;;;;5224420;28;20253;-48
2023/12/13 01:47:06;;;;;;;37.93;20.97;;;3.90;99.90;;;;;;5219640;28;20972;-48
2023/12/13 01:49:37;;;;;;;36.43;21.10;;;3.90;99.90;;;;;;5222131;28;20194;-47
2023/12/13 01:52:08;;;;;;;33.30;19.10;;;3.90;99.90;;;;;;5189751;28;20449;-47
2023/12/13 01:54:39;;;;;;;30.57;17.93;;;3.90;99.90;;;;;;5223146;28;20236;-49
2023/12/13 01:57:10;;;;;;;34.17;19.73;;;3.90;99.90;;;;;;5225990;28;20241;-48
2023/12/13 01:59:41;;;;;;;35.00;19.43;;;3.90;99.90;;;;;;5224177;28;20940;-48
2023/12/13 02:02:12;;;;;;;37.73;18.83;;;3.90;99.90;;;;;;5206889;28;20448;-46
2023/12/13 02:04:44;;;;;;;40.47;19.00;;;4.00;99.90;;;;;;5224862;28;20457;-47
2023/12/13 02:07:15;;;;;;;36.53;19.77;;;4.00;99.90;;;;;;5214236;28;20190;-47
2023/12/13 02:09:46;;;;;;;33.67;18.37;;;4.00;99.90;;;;;;5224661;28;20441;-47
2023/12/13 02:12:16;;;;;;;34.87;19.53;;;4.00;99.90;;;;;;5220367;28;20207;-49
2023/12/13 02:14:47;;;;;;;27.33;16.73;;;4.00;99.90;;;;;;5223637;28;20674;-45
2023/12/13 02:17:17;;;;;;;26.00;17.57;;;4.00;99.90;;;;;;5222827;28;20191;-46
2023/12/13 02:19:48;;;;;;;29.67;15.57;;;4.10;99.90;;;;;;5224610;28;20183;-46
2023/12/13 02:22:19;;;;;;;31.73;17.20;;;4.10;99.90;;;;;;5224127;28;20546;-46
2023/12/13 02:24:51;;;;;;;25.90;15.93;;;4.00;99.90;;;;;;5224047;28;20210;-47
2023/12/13 02:27:26;;;;;;;23.57;15.10;;;4.10;99.90;;;;;;5222765;28;20263;-50
2023/12/13 02:29:56;;;;;;;33.20;17.93;;;4.10;99.90;;;;;;5223442;28;20511;-47
2023/12/13 02:32:27;;;;;;;24.50;15.27;;;4.10;99.90;;;;;;5224757;28;20911;-49
2023/12/13 02:34:57;;;;;;;26.43;16.53;;;4.10;99.90;;;;;;5225138;28;20578;-50
2023/12/13 02:37:28;;;;;;;29.70;15.77;;;4.20;99.90;;;;;;5230290;28;20187;-47
2023/12/13 02:39:59;;;;;;;32.97;16.97;;;4.10;99.90;;;;;;5227984;28;20180;-46
2023/12/13 02:42:29;;;;;;;37.93;16.13;;;4.20;99.90;;;;;;5228443;28;20188;-49
2023/12/13 02:45:00;;;;;;;31.80;15.57;;;4.10;99.90;;;;;;5228110;28;20224;-47
2023/12/13 02:47:31;;;;;;;30.00;16.30;;;4.10;99.90;;;;;;5220665;28;20192;-46
2023/12/13 02:50:01;;;;;;;28.23;15.77;;;4.20;99.90;;;;;;5228516;28;20182;-46
2023/12/13 02:52:32;;;;;;;26.83;15.80;;;4.20;99.90;;;;;;5226044;28;20195;-48
2023/12/13 02:55:03;;;;;;;29.53;16.97;;;4.20;99.90;;;;;;5227124;28;20191;-47
2023/12/13 02:57:33;;;;;;;32.93;16.53;;;4.20;99.90;;;;;;5227385;28;20252;-48
2023/12/13 03:00:05;;;;;;;28.73;16.87;;;4.20;99.90;;;;;;5227812;28;20417;-47
2023/12/13 03:02:38;;;;;;;36.40;18.27;;;4.20;99.90;;;;;;5230326;28;20267;-49
2023/12/13 03:05:08;;;;;;;27.53;15.50;;;4.20;99.90;;;;;;5227602;28;20478;-47
2023/12/13 03:07:40;;;;;;;24.73;16.73;;;4.20;99.90;;;;;;5226992;28;20934;-51
2023/12/13 03:10:10;;;;;;;25.43;15.80;;;4.30;99.90;;;;;;5228359;28;20202;-47
2023/12/13 03:12:41;;;;;;;28.80;16.40;;;4.20;99.90;;;;;;5226326;28;20459;-47
2023/12/13 03:15:12;;;;;;;35.67;17.03;;;4.20;99.90;;;;;;5222421;28;20207;-46
2023/12/13 03:17:43;;;;;;;35.30;17.07;;;4.20;99.90;;;;;;5227273;28;20426;-47
2023/12/13 03:20:13;;;;;;;37.30;19.10;;;4.20;99.90;;;;;;5229139;28;20180;-47
2023/12/13 03:22:44;;;;;;;40.83;17.47;;;4.20;99.90;;;;;;5229155;28;20186;-46
2023/12/13 03:25:15;;;;;;;30.80;17.73;;;4.20;99.90;;;;;;5227771;28;20203;-48
2023/12/13 03:27:45;;;;;;;30.60;18.10;;;4.30;99.90;;;;;;5227194;28;20652;-47
2023/12/13 03:30:16;;;;;;;34.33;19.63;;;4.20;99.90;;;;;;5226156;28;20651;-46
2023/12/13 03:32:47;;;;;;;35.50;20.53;;;4.20;99.90;;;;;;5228094;28;20215;-46
2023/12/13 03:35:17;;;;;;;25.77;17.63;;;4.20;99.90;;;;;;5227306;28;20688;-46
2023/12/13 03:37:48;;;;;;;36.40;19.67;;;4.20;99.90;;;;;;5224846;28;20233;-47
2023/12/13 03:40:19;;;;;;;37.80;21.17;;;4.20;99.90;;;;;;5226439;28;20179;-45
2023/12/13 03:42:49;;;;;;;42.90;23.87;;;4.10;99.90;;;;;;5225660;28;20446;-48
2023/12/13 03:45:23;;;;;;;56.77;22.50;;;4.10;99.90;;;;;;5226334;28;20296;-46
2023/12/13 03:47:53;;;;;;;45.07;22.70;;;4.10;99.90;;;;;;5226968;28;20235;-49
2023/12/13 03:50:24;;;;;;;55.80;26.20;;;4.10;99.90;;;;;;5226678;28;20860;-46
2023/12/13 03:52:54;;;;;;;45.77;25.57;;;4.10;99.90;;;;;;5227102;28;20209;-47
2023/12/13 03:55:25;;;;;;;59.83;28.00;;;4.10;99.90;;;;;;5228328;28;20206;-47
2023/12/13 03:57:56;;;;;;;70.90;30.77;;;4.00;99.90;;;;;;5226121;28;20195;-47
2023/12/13 04:00:26;;;;;;;57.60;30.47;;;4.10;99.90;;;;;;5224536;28;20172;-47
2023/12/13 04:02:57;;;;;;;54.37;27.90;;;4.10;99.90;;;;;;5225015;28;20266;-47
2023/12/13 04:05:30;;;;;;;67.33;28.70;;;4.10;99.90;;;;;;5245774;22;20227;-54
2023/12/13 04:08:04;;;;;;;73.27;30.00;;;4.10;99.90;;;;;;5211658;28;20179;-52
2023/12/13 04:10:35;;;;;;;64.33;28.97;;;4.10;99.90;;;;;;5220021;28;20432;-49
2023/12/13 04:13:09;;;;;;;76.33;30.60;;;4.10;99.90;;;;;;5224666;28;20983;-51
2023/12/13 04:15:40;;;;;;;64.73;30.97;;;4.10;99.90;;;;;;5228861;28;20454;-52
2023/12/13 04:18:11;;;;;;;65.30;30.07;;;4.10;99.90;;;;;;5226954;28;20422;-52
2023/12/13 04:20:45;;;;;;;62.77;29.70;;;4.10;99.90;;;;;;5226503;28;20190;-51
2023/12/13 04:23:19;;;;;;;70.93;29.63;;;4.10;99.90;;;;;;5223040;28;20524;-52
2023/12/13 04:25:50;;;;;;;63.43;30.10;;;4.10;99.90;;;;;;5227078;28;20977;-51
2023/12/13 04:28:24;;;;;;;81.63;33.70;;;4.20;99.90;;;;;;5227181;28;20801;-51
2023/12/13 04:31:00;;;;;;;67.00;30.57;;;4.20;99.90;;;;;;5221448;28;20492;-50
2023/12/13 04:33:36;;;;;;;73.20;30.70;;;4.20;99.90;;;;;;5223167;28;20499;-51
2023/12/13 04:36:08;;;;;;;61.57;30.83;;;4.20;99.90;;;;;;5226296;28;20990;-50
2023/12/13 04:38:38;;;;;;;81.33;33.70;;;4.20;99.90;;;;;;5221105;28;20488;-50
2023/12/13 04:41:12;;;;;;;74.93;33.40;;;4.20;99.90;;;;;;5226503;28;20474;-52
2023/12/13 04:44:02;;;;;;;72.00;33.40;;;4.20;99.90;;;;;;5218509;28;20220;-52
2023/12/13 04:46:35;;;;;;;70.47;32.30;;;4.20;99.90;;;;;;5210949;28;20490;-51
2023/12/13 04:49:09;;;;;;;72.33;31.97;;;4.20;99.90;;;;;;5227007;28;20858;-50
2023/12/13 04:51:40;;;;;;;73.90;33.07;;;4.20;99.90;;;;;;5226779;28;20530;-51
2023/12/13 04:54:14;;;;;;;76.40;33.57;;;4.20;99.90;;;;;;5226236;28;20424;-50
2023/12/13 04:56:44;;;;;;;84.67;36.80;;;4.20;99.90;;;;;;5225787;28;20227;-50
2023/12/13 04:59:15;;;;;;;94.53;36.90;;;4.20;99.90;;;;;;5225452;28;20473;-50
2023/12/13 05:01:46;;;;;;;84.77;35.00;;;4.20;99.90;;;;;;5225295;28;20187;-50
2023/12/13 05:04:17;;;;;;;87.50;33.20;;;4.20;99.90;;;;;;5225785;28;20227;-51
2023/12/13 05:06:47;;;;;;;100.40;38.50;;;4.20;99.90;;;;;;5223808;28;20687;-51
2023/12/13 05:09:18;;;;;;;96.53;37.37;;;4.20;99.90;;;;;;5223671;28;20184;-52
2023/12/13 05:11:51;;;;;;;80.77;37.10;;;4.20;99.90;;;;;;5221432;28;20203;-49
2023/12/13 05:14:22;;;;;;;93.73;37.50;;;4.20;99.90;;;;;;5221383;28;20191;-51
2023/12/13 05:16:53;;;;;;;86.40;37.40;;;4.20;99.90;;;;;;5225876;28;20451;-51
2023/12/13 05:19:24;;;;;;;95.30;39.40;;;4.10;99.90;;;;;;5225668;28;20270;-51
2023/12/13 05:21:55;;;;;;;94.53;42.30;;;4.20;99.90;;;;;;5226563;28;20186;-50
2023/12/13 05:24:26;;;;;;;103.57;41.90;;;4.10;99.90;;;;;;5223875;28;20637;-51
2023/12/13 05:26:59;;;;;;;94.97;42.97;;;4.20;99.90;;;;;;5209004;28;20528;-51
2023/12/13 05:29:30;;;;;;;102.00;40.67;;;4.20;99.90;;;;;;5220887;28;20199;-52
2023/12/13 05:32:01;;;;;;;111.20;42.93;;;4.20;99.90;;;;;;5220839;28;20467;-53
2023/12/13 05:34:34;;;;;;;118.80;45.27;;;4.10;99.90;;;;;;5224928;28;20192;-51
2023/12/13 05:37:08;;;;;;;124.57;48.87;;;4.20;99.90;;;;;;5223189;28;20711;-51
2023/12/13 05:39:42;;;;;;;117.03;46.20;;;4.20;99.90;;;;;;5206941;28;20445;-50
2023/12/13 05:42:13;;;;;;;119.67;47.77;;;4.20;99.90;;;;;;5226662;28;20432;-49
2023/12/13 05:44:46;;;;;;;123.73;47.70;;;4.20;99.90;;;;;;5223364;28;20461;-49
2023/12/13 05:47:17;;;;;;;115.60;45.20;;;4.20;99.90;;;;;;5225187;28;20187;-51
2023/12/13 05:49:48;;;;;;;121.63;49.33;;;4.20;99.90;;;;;;5224032;28;20448;-52
2023/12/13 05:52:19;;;;;;;151.13;50.90;;;4.20;99.90;;;;;;5222850;28;20493;-51
2023/12/13 05:54:50;;;;;;;103.97;44.27;;;4.20;99.90;;;;;;5223286;28;20292;-50
2023/12/13 05:57:20;;;;;;;118.57;47.10;;;4.30;99.90;;;;;;5223712;28;20384;-54
2023/12/13 05:59:51;;;;;;;122.63;47.57;;;4.30;99.90;;;;;;5220720;28;20436;-51
2023/12/13 06:02:22;;;;;;;119.23;45.40;;;4.30;99.90;;;;;;5220569;28;20196;-52
2023/12/13 06:04:53;;;;;;;121.03;49.37;;;4.30;99.90;;;;;;5223776;28;20211;-53
2023/12/13 06:07:24;;;;;;;126.43;51.90;;;4.30;99.90;;;;;;5223290;28;20202;-52
2023/12/13 06:09:55;;;;;;;115.73;48.00;;;4.30;99.90;;;;;;5227521;28;20960;-50
2023/12/13 06:12:28;;;;;;;127.93;45.30;;;4.30;99.90;;;;;;5226763;28;20465;-50
2023/12/13 06:14:59;;;;;;;112.00;47.20;;;4.40;99.90;;;;;;5227346;28;20453;-50
2023/12/13 06:17:30;;;;;;;128.07;48.97;;;4.40;99.90;;;;;;5226082;28;20488;-50
2023/12/13 06:20:01;;;;;;;118.53;46.80;;;4.40;99.90;;;;;;5229194;28;20724;-50
2023/12/13 06:22:32;;;;;;;116.60;45.70;;;4.40;99.90;;;;;;5225314;28;20952;-52
2023/12/13 06:25:07;;;;;;;148.87;49.00;;;4.40;99.90;;;;;;5224712;28;20452;-50
2023/12/13 06:27:38;;;;;;;146.63;51.50;;;4.40;99.90;;;;;;5226833;28;20190;-51
2023/12/13 06:30:10;;;;;;;109.80;45.90;;;4.40;99.90;;;;;;5229719;28;20441;-53
2023/12/13 06:32:41;;;;;;;127.90;45.00;;;4.40;99.90;;;;;;5223532;28;20457;-51
2023/12/13 06:35:14;;;;;;;99.30;42.70;;;4.40;99.90;;;;;;5228709;28;20824;-50
2023/12/13 06:37:45;;;;;;;105.53;42.50;;;4.40;99.90;;;;;;5228130;28;20183;-51
2023/12/13 06:40:18;;;;;;;135.47;46.50;;;4.40;99.90;;;;;;5229903;28;20931;-51
2023/12/13 06:42:49;;;;;;;111.20;41.83;;;4.50;99.90;;;;;;5224791;28;20245;-52
2023/12/13 06:45:20;;;;;;;101.43;41.73;;;4.50;99.90;;;;;;5226323;28;20450;-50
2023/12/13 06:47:51;;;;;;;93.07;41.03;;;4.50;99.90;;;;;;5226253;28;20269;-50
2023/12/13 06:50:24;;;;;;;106.27;41.07;;;4.50;99.90;;;;;;5225764;28;20437;-51
2023/12/13 06:53:04;;;;;;;94.97;39.90;;;4.50;99.90;;;;;;5223231;28;20505;-50
2023/12/13 06:55:38;;;;;;;94.27;41.33;;;4.50;99.90;;;;;;5229709;28;20464;-51
2023/12/13 06:58:09;;;;;;;100.20;40.90;;;4.50;99.90;;;;;;5230240;28;20862;-50
2023/12/13 07:00:39;;;;;;;105.30;41.17;;;4.50;99.90;;;;;;5226891;28;20416;-50
2023/12/13 07:03:10;;;;;;;109.73;42.20;;;4.50;99.90;;;;;;5242355;28;20217;-53
2023/12/13 07:05:45;;;;;;;91.13;37.53;;;4.50;99.90;;;;;;5227776;28;20632;-51
2023/12/13 07:08:15;;;;;;;88.63;38.00;;;4.50;99.90;;;;;;5230493;28;20189;-51
2023/12/13 07:10:46;;;;;;;102.17;40.10;;;4.50;99.90;;;;;;5212121;28;20445;-51
2023/12/13 07:13:20;;;;;;;104.87;40.97;;;4.50;99.90;;;;;;5226079;28;20238;-50
2023/12/13 07:15:53;;;;;;;89.83;36.33;;;4.50;99.90;;;;;;5229259;28;20875;-53
2023/12/13 07:18:27;;;;;;;99.87;40.57;;;4.50;99.90;;;;;;5233344;28;20430;-50
2023/12/13 07:21:01;;;;;;;84.27;38.53;;;4.50;99.90;;;;;;5228942;28;20524;-51
2023/12/13 07:23:33;;;;;;;94.47;40.27;;;4.50;99.90;;;;;;5207960;28;20441;-50
2023/12/13 07:26:04;;;;;;;107.60;41.73;;;4.50;99.90;;;;;;5224371;28;20454;-50
2023/12/13 07:28:38;;;;;;;101.03;43.30;;;4.50;99.90;;;;;;5225681;28;20435;-50
2023/12/13 07:31:11;;;;;;;95.83;41.97;;;4.50;99.90;;;;;;5220330;28;20826;-50
2023/12/13 07:33:42;;;;;;;104.40;44.53;;;4.50;99.90;;;;;;5228575;28;20839;-49
2023/12/13 07:36:18;;;;;;;132.17;48.30;;;4.50;99.90;;;;;;5227566;28;20457;-49
2023/12/13 07:38:49;;;;;;;135.80;47.80;;;4.50;99.90;;;;;;5225247;28;20197;-50
2023/12/13 07:41:25;;;;;;;98.50;42.60;;;4.50;99.90;;;;;;5222302;28;20447;-50
2023/12/13 07:43:56;;;;;;;109.63;46.07;;;4.50;99.90;;;;;;5224354;28;20451;-50
2023/12/13 07:46:26;;;;;;;134.53;47.40;;;4.50;99.90;;;;;;5225029;28;20541;-50
2023/12/13 07:49:03;;;;;;;119.47;47.70;;;4.50;99.90;;;;;;5228361;28;20195;-51
2023/12/13 07:51:34;;;;;;;112.67;43.57;;;4.50;99.90;;;;;;5223959;28;20294;-52
2023/12/13 07:54:05;;;;;;;113.90;43.80;;;4.60;99.90;;;;;;5222021;28;20490;-50
2023/12/13 07:56:36;;;;;;;134.50;51.03;;;4.60;99.90;;;;;;5224890;28;20460;-53
2023/12/13 07:59:07;;;;;;;109.43;45.80;;;4.60;99.90;;;;;;5225451;28;20207;-51
2023/12/13 08:01:37;;;;;;;122.87;48.50;;;4.70;99.90;;;;;;5226622;28;20753;-50
2023/12/13 08:04:08;;;;;;;147.43;50.50;;;4.60;99.90;;;;;;5226657;28;20533;-50
2023/12/13 08:06:42;;;;;;;111.73;49.50;;;4.60;99.90;;;;;;5226230;28;20281;-50
2023/12/13 08:09:13;;;;;;;134.17;49.97;;;4.60;99.90;;;;;;5224574;28;20452;-50
2023/12/13 08:11:44;;;;;;;133.03;50.20;;;4.60;99.90;;;;;;5223485;28;20950;-51
2023/12/13 08:14:15;;;;;;;118.20;45.03;;;4.70;99.90;;;;;;5226833;28;20519;-51
2023/12/13 08:16:47;;;;;;;124.60;48.37;;;4.70;99.90;;;;;;5223826;28;20280;-52
2023/12/13 08:19:18;;;;;;;118.97;47.43;;;4.80;99.90;;;;;;5225295;28;20443;-50
2023/12/13 08:21:52;;;;;;;169.30;57.27;;;4.70;99.90;;;;;;5225486;28;20907;-52
2023/12/13 08:24:23;;;;;;;129.50;49.60;;;4.70;99.90;;;;;;5225055;28;20419;-50
2023/12/13 08:26:57;;;;;;;137.27;49.50;;;4.70;99.90;;;;;;5224394;28;20541;-51
2023/12/13 08:29:29;;;;;;;101.23;44.30;;;4.80;99.90;;;;;;5219727;28;20451;-54
2023/12/13 08:32:06;;;;;;;127.90;50.60;;;4.70;99.90;;;;;;5219663;28;20466;-50
2023/12/13 08:34:37;;;;;;;144.83;50.73;;;4.80;99.90;;;;;;5221991;28;20492;-50
2023/12/13 08:37:08;;;;;;;120.87;50.17;;;4.80;99.90;;;;;;5225903;28;20995;-49
2023/12/13 08:39:40;;;;;;;147.70;55.20;;;4.80;99.90;;;;;;5226956;28;20430;-53
2023/12/13 08:42:11;;;;;;;128.07;55.23;;;4.80;99.90;;;;;;5226809;28;20182;-51
2023/12/13 08:44:46;;;;;;;146.00;58.37;;;4.80;99.90;;;;;;5224296;28;20661;-49
2023/12/13 08:47:16;;;;;;;147.03;55.90;;;4.80;99.90;;;;;;5222343;28;20204;-49
2023/12/13 08:49:48;;;;;;;148.63;56.93;;;4.70;99.90;;;;;;5227460;28;21038;-50
2023/12/13 08:52:19;;;;;;;169.63;61.13;;;4.70;99.90;;;;;;5225738;28;20281;-50
2023/12/13 08:54:50;;;;;;;146.30;56.07;;;4.80;99.90;;;;;;5227808;28;20524;-54
2023/12/13 08:57:34;;;;;;;170.10;63.23;;;4.80;99.90;;;;;;5227343;28;20435;-49
2023/12/13 09:00:13;;;;;;;156.73;59.67;;;4.80;99.90;;;;;;5223650;28;20465;-51
2023/12/13 09:02:47;;;;;;;169.63;63.73;;;4.80;99.90;;;;;;5217921;28;20443;-49
2023/12/13 09:05:21;;;;;;;166.30;63.60;;;4.80;99.90;;;;;;5225262;28;20471;-50
2023/12/13 09:07:55;;;;;;;179.43;63.27;;;4.80;99.90;;;;;;5224392;28;20452;-49
2023/12/13 09:10:26;;;;;;;171.00;67.30;;;4.80;99.90;;;;;;5224069;28;20439;-50
2023/12/13 09:12:57;;;;;;;170.73;63.20;;;4.90;99.90;;;;;;5221334;28;21028;-51
2023/12/13 09:15:28;;;;;;;162.23;60.80;;;4.90;99.90;;;;;;5222554;28;20234;-50
2023/12/13 09:17:59;;;;;;;168.83;62.47;;;5.00;99.90;;;;;;5223337;28;20443;-50
2023/12/13 09:20:30;;;;;;;215.60;70.20;;;5.00;99.90;;;;;;5226149;28;20514;-50
2023/12/13 09:23:00;;;;;;;180.40;61.53;;;4.90;99.90;;;;;;5224113;28;20463;-51
2023/12/13 09:25:34;;;;;;;177.57;63.30;;;4.90;99.90;;;;;;5221813;28;20202;-50
2023/12/13 09:28:05;;;;;;;188.00;70.63;;;5.00;99.90;;;;;;5227344;28;20188;-51
2023/12/13 09:30:39;;;;;;;181.07;68.27;;;4.90;99.90;;;;;;5225129;28;20485;-50
2023/12/13 09:33:13;;;;;;;164.03;62.77;;;4.90;99.90;;;;;;5223470;28;20201;-51
2023/12/13 09:35:44;;;;;;;196.40;66.43;;;4.90;99.90;;;;;;5221650;28;20484;-49
2023/12/13 09:38:17;;;;;;;170.13;63.93;;;4.90;99.90;;;;;;5220133;28;20954;-49
2023/12/13 09:40:51;;;;;;;185.53;67.57;;;4.90;99.90;;;;;;5220096;28;20276;-50
2023/12/13 09:43:24;;;;;;;242.27;76.13;;;4.90;99.90;;;;;;5223286;28;20449;-50
2023/12/13 09:45:55;;;;;;;164.80;66.90;;;4.90;99.90;;;;;;5228293;28;20437;-52
2023/12/13 09:48:29;;;;;;;196.67;69.30;;;4.90;99.90;;;;;;5225800;28;21056;-50
2023/12/13 09:51:02;;;;;;;201.47;70.10;;;4.90;99.90;;;;;;5228545;28;20970;-50
2023/12/13 09:53:38;;;;;;;217.87;67.30;;;4.90;99.90;;;;;;5210408;28;20448;-51
2023/12/13 09:56:15;;;;;;;184.83;67.47;;;4.90;99.90;;;;;;5225479;28;20489;-50
2023/12/13 09:58:46;;;;;;;179.30;65.63;;;4.90;99.90;;;;;;5235343;28;20442;-50
2023/12/13 10:01:19;;;;;;;205.70;70.50;;;4.90;99.90;;;;;;5221843;28;20783;-50
2023/12/13 10:03:51;;;;;;;184.73;64.97;;;4.90;99.90;;;;;;5224807;28;20184;-52
2023/12/13 10:06:21;;;;;;;216.03;73.57;;;4.90;99.90;;;;;;5239439;22;20493;-50
2023/12/13 10:08:54;;;;;;;206.73;69.07;;;4.80;99.90;;;;;;5234836;28;20446;-49
2023/12/13 10:11:25;;;;;;;228.93;74.80;;;4.80;99.90;;;;;;5241614;28;20267;-50
2023/12/13 10:13:56;;;;;;;190.83;68.90;;;4.90;99.90;;;;;;5243655;28;20438;-50
2023/12/13 10:16:28;;;;;;;170.67;64.07;;;4.90;99.90;;;;;;5241553;28;20283;-51
2023/12/13 10:18:59;;;;;;;241.17;74.80;;;4.90;99.90;;;;;;5243666;28;20948;-49
2023/12/13 10:21:33;;;;;;;175.73;63.47;;;4.90;99.90;;;;;;5244702;28;20437;-52
2023/12/13 10:24:07;;;;;;;206.07;69.87;;;4.90;99.90;;;;;;5243113;28;20187;-50
2023/12/13 10:26:39;;;;;;;190.30;63.60;;;4.90;99.90;;;;;;5240019;28;20516;-50
2023/12/13 10:29:09;;;;;;;205.03;70.20;;;4.90;99.90;;;;;;5236560;28;20453;-50
2023/12/13 10:31:40;;;;;;;176.03;61.63;;;4.90;99.90;;;;;;5239402;28;20910;-52
2023/12/13 10:34:11;;;;;;;204.50;67.43;;;5.00;99.90;;;;;;5244617;28;20185;-52
2023/12/13 10:36:42;;;;;;;170.70;62.80;;;5.00;99.90;;;;;;5244082;28;20203;-52
2023/12/13 10:39:15;;;;;;;176.17;59.57;;;5.00;99.90;;;;;;5245063;28;20584;-52
2023/12/13 10:41:48;;;;;;;172.90;63.10;;;4.90;99.90;;;;;;5242007;28;20796;-49
2023/12/13 10:44:21;;;;;;;194.53;70.17;;;5.00;99.90;;;;;;5243910;28;20760;-51
2023/12/13 10:46:58;;;;;;;171.40;62.50;;;5.00;99.90;;;;;;5242290;28;21011;-50
2023/12/13 10:49:29;;;;;;;161.40;58.57;;;5.00;99.90;;;;;;5223589;28;21510;-50
2023/12/13 10:52:01;;;;;;;161.27;61.20;;;5.00;99.90;;;;;;5240127;28;20498;-51
2023/12/13 10:54:32;;;;;;;178.53;64.77;;;5.00;99.90;;;;;;5240418;28;20436;-51
2023/12/13 10:57:03;;;;;;;155.47;61.33;;;4.90;99.90;;;;;;5245023;28;20452;-51
2023/12/13 10:59:36;;;;;;;202.70;64.00;;;4.90;99.90;;;;;;5239463;28;20427;-49
2023/12/13 11:02:10;;;;;;;175.27;58.73;;;4.90;99.90;;;;;;5239977;28;20986;-51
2023/12/13 11:04:43;;;;;;;176.93;62.60;;;4.90;99.90;;;;;;5240853;28;20449;-53
2023/12/13 11:07:13;;;;;;;178.90;63.60;;;4.90;99.90;;;;;;5243342;28;20528;-50
2023/12/13 11:09:51;;;;;;;212.73;67.47;;;4.90;99.90;;;;;;5245021;28;20954;-51
2023/12/13 11:12:22;;;;;;;181.33;64.60;;;4.90;99.90;;;;;;5246584;28;20450;-50
2023/12/13 11:14:53;;;;;;;175.17;59.00;;;4.90;99.90;;;;;;5246117;28;20479;-53
2023/12/13 11:17:24;;;;;;;158.63;54.43;;;5.00;99.90;;;;;;5243527;28;20189;-50
2023/12/13 11:19:55;;;;;;;209.27;62.60;;;4.90;99.90;;;;;;5243504;28;20230;-52
2023/12/13 11:22:31;;;;;;;175.53;58.60;;;4.90;99.90;;;;;;5228313;28;20930;-51
2023/12/13 11:25:03;;;;;;;175.00;56.50;;;5.00;99.90;;;;;;5244890;28;20454;-50
2023/12/13 11:27:34;;;;;;;153.20;57.97;;;5.00;99.90;;;;;;5245496;28;20446;-51
2023/12/13 11:30:13;;;;;;;184.63;58.00;;;4.90;99.90;;;;;;5241350;28;20450;-50
2023/12/13 11:32:46;;;;;;;228.50;65.67;;;5.00;99.90;;;;;;5246256;28;20465;-51
2023/12/13 11:35:20;;;;;;;165.27;57.63;;;5.00;99.90;;;;;;5246252;28;20491;-52
2023/12/13 11:37:55;;;;;;;174.07;56.57;;;4.90;99.90;;;;;;5245219;28;20437;-51
2023/12/13 11:40:25;;;;;;;215.40;62.57;;;4.90;99.90;;;;;;5244456;28;20453;-50
2023/12/13 11:42:56;;;;;;;164.53;59.77;;;4.90;99.90;;;;;;5244410;28;20437;-51
2023/12/13 11:45:26;;;;;;;187.90;60.47;;;4.90;99.90;;;;;;5245683;28;20219;-51
2023/12/13 11:48:00;;;;;;;173.10;57.00;;;5.00;99.90;;;;;;5240706;28;20185;-51
2023/12/13 11:50:31;;;;;;;168.87;57.80;;;5.00;99.90;;;;;;5244622;28;20187;-51
2023/12/13 11:53:02;;;;;;;212.13;62.47;;;5.00;99.90;;;;;;5226719;28;20823;-51
2023/12/13 11:55:33;;;;;;;168.23;55.93;;;5.00;99.90;;;;;;5244942;28;20198;-51
2023/12/13 11:58:03;;;;;;;161.70;58.00;;;5.00;99.90;;;;;;5246028;28;20449;-53
2023/12/13 12:00:34;;;;;;;153.60;53.17;;;5.00;99.90;;;;;;5243648;28;20189;-52
2023/12/13 12:03:05;;;;;;;170.33;55.53;;;5.00;99.90;;;;;;5245153;28;20515;-50
2023/12/13 12:05:35;;;;;;;178.83;59.50;;;4.90;99.90;;;;;;5244092;28;20214;-52
2023/12/13 12:08:06;;;;;;;189.33;60.57;;;4.90;99.90;;;;;;5242537;28;20275;-51
2023/12/13 12:10:37;;;;;;;166.60;57.40;;;4.90;99.90;;;;;;5242010;28;20192;-49
2023/12/13 12:13:08;;;;;;;165.77;57.93;;;4.90;99.90;;;;;;5243427;28;20464;-51
2023/12/13 12:15:39;;;;;;;191.87;63.67;;;4.90;99.90;;;;;;5241709;28;20241;-49
2023/12/13 12:18:11;;;;;;;185.33;65.03;;;4.90;99.90;;;;;;5242199;28;20572;-50
2023/12/13 12:20:42;;;;;;;192.73;59.60;;;5.00;99.90;;;;;;5225278;28;20448;-50
2023/12/13 12:23:13;;;;;;;186.60;59.07;;;4.90;99.90;;;;;;5245170;28;20428;-50
2023/12/13 12:25:44;;;;;;;174.40;57.37;;;4.90;99.90;;;;;;5241362;28;20206;-50
2023/12/13 12:28:14;;;;;;;163.70;57.60;;;4.90;99.90;;;;;;5244544;28;20179;-51
2023/12/13 12:30:46;;;;;;;147.10;52.33;;;4.90;99.90;;;;;;5240901;28;20441;-51
2023/12/13 12:33:16;;;;;;;161.90;54.73;;;4.90;99.90;;;;;;5243784;28;20232;-48
2023/12/13 12:35:47;;;;;;;173.43;54.10;;;4.90;99.90;;;;;;5245239;28;20457;-50
2023/12/13 12:38:18;;;;;;;168.27;58.10;;;4.90;99.90;;;;;;5239940;28;20688;-50
2023/12/13 12:40:49;;;;;;;193.33;58.13;;;4.90;99.90;;;;;;5243580;28;20183;-50
2023/12/13 12:43:20;;;;;;;192.07;59.23;;;4.90;99.90;;;;;;5245768;28;20232;-50
2023/12/13 12:45:51;;;;;;;164.10;55.07;;;5.00;99.90;;;;;;5242078;28;20458;-49
2023/12/13 12:48:22;;;;;;;210.53;63.90;;;5.00;99.90;;;;;;5242429;28;20792;-50
2023/12/13 12:50:53;;;;;;;186.00;59.90;;;5.10;99.90;;;;;;5243457;28;20189;-50
2023/12/13 12:53:24;;;;;;;212.73;61.70;;;5.00;99.90;;;;;;5240672;28;20473;-51